« Back
NWS Peachtree City, Ga » Text Product » ATL Terminal Aerodrome Forecast


Printer-friendly Version
Current Version              Previous Versions:   1  2  3  4  5  6  7  8  9  

Terminal Aerodrome Forecast

806
FTUS42 KFFC 040200 AAA
TAFATL
TAF AMD
KATL 040200Z 0402/0506 30008KT P6SM SCT070
     FM041400 31012G20KT P6SM SCT045
     FM042000 30014G22KT P6SM BKN070=

USA.gov is the U.S. government's official web portal to all federal, state and local government web resources and services.